createdAt,value
2019-04-14T00:01:56.602Z,48.30
2019-04-14T00:04:27.050Z,48.50
2019-04-14T00:06:57.001Z,48.40
2019-04-14T00:09:27.204Z,48.90
2019-04-14T00:11:59.102Z,49.40
2019-04-14T00:14:30.058Z,49.50
2019-04-14T00:16:59.635Z,49.70
2019-04-14T00:19:30.783Z,50.00
2019-04-14T00:22:03.066Z,50.80
2019-04-14T00:24:33.580Z,50.40
2019-04-14T00:27:04.229Z,51.00
2019-04-14T00:29:35.484Z,50.80
2019-04-14T00:32:07.342Z,50.90
2019-04-14T00:34:41.960Z,51.40
2019-04-14T00:37:16.874Z,51.10
2019-04-14T00:39:51.158Z,51.20
2019-04-14T00:42:30.509Z,51.40
2019-04-14T00:45:00.791Z,51.30
2019-04-14T00:47:49.809Z,51.30
2019-04-14T00:50:08.041Z,51.70
2019-04-14T00:52:37.278Z,51.90
2019-04-14T00:55:07.620Z,51.80
2019-04-14T00:57:38.327Z,52.00
2019-04-14T01:00:08.213Z,52.30
2019-04-14T01:02:38.500Z,52.10
2019-04-14T01:05:08.950Z,53.30
2019-04-14T01:07:39.159Z,52.80
2019-04-14T01:10:08.216Z,53.50
2019-04-14T01:12:37.055Z,53.00
2019-04-14T01:15:07.885Z,53.10
2019-04-14T01:17:37.368Z,53.00
2019-04-14T01:20:08.427Z,53.00
2019-04-14T01:22:38.327Z,53.40
2019-04-14T01:25:13.251Z,53.40
2019-04-14T01:27:42.928Z,53.90
2019-04-14T01:30:13.354Z,53.90
2019-04-14T01:32:43.624Z,53.50
2019-04-14T01:35:13.754Z,54.10
2019-04-14T01:37:44.988Z,54.20
2019-04-14T01:40:14.221Z,54.00
2019-04-14T01:42:44.172Z,54.20
2019-04-14T01:45:16.457Z,54.80
2019-04-14T01:47:48.984Z,54.60
2019-04-14T01:50:21.529Z,54.90
2019-04-14T01:53:07.551Z,55.00
2019-04-14T01:55:44.138Z,54.90
2019-04-14T01:58:14.490Z,55.00
2019-04-14T02:00:49.151Z,55.00
2019-04-14T02:03:20.193Z,55.10
2019-04-14T02:05:49.597Z,55.20
2019-04-14T02:08:19.827Z,55.60
2019-04-14T02:10:49.922Z,56.00
2019-04-14T02:13:20.257Z,56.70
2019-04-14T02:15:49.094Z,56.50
2019-04-14T02:18:18.555Z,56.90
2019-04-14T02:20:48.929Z,56.70
2019-04-14T02:23:19.267Z,56.80
2019-04-14T02:25:49.351Z,56.80
2019-04-14T02:28:26.466Z,56.50
2019-04-14T02:31:10.226Z,57.40
2019-04-14T02:33:52.597Z,56.90
2019-04-14T02:44:04.979Z,57.90
2019-04-14T02:46:44.004Z,58.30
2019-04-14T02:49:19.410Z,58.60
2019-04-14T02:51:33.608Z,59.00
2019-04-14T02:54:07.127Z,59.20
2019-04-14T02:56:36.933Z,59.50
2019-04-14T02:59:13.515Z,60.00
2019-04-14T03:01:58.263Z,60.30
2019-04-14T03:04:11.167Z,60.80
2019-04-14T03:06:41.506Z,61.30
2019-04-14T03:09:19.047Z,61.70
2019-04-14T03:11:45.977Z,61.80
2019-04-14T03:14:15.608Z,62.40
2019-04-14T03:17:14.658Z,62.30
2019-04-14T03:20:05.365Z,62.30
2019-04-14T03:22:53.501Z,61.90
2019-04-14T03:25:26.472Z,62.40
2019-04-14T03:28:26.347Z,62.10
2019-04-14T03:31:09.792Z,61.70
2019-04-14T03:38:49.779Z,61.40
2019-04-14T03:41:16.837Z,61.90
2019-04-14T03:43:41.457Z,62.10
2019-04-14T03:46:27.327Z,62.00
2019-04-14T03:51:26.346Z,62.40
2019-04-14T03:53:53.522Z,62.30
2019-04-14T03:56:00.631Z,62.10
2019-04-14T03:58:27.153Z,62.50
2019-04-14T04:00:57.603Z,62.50
2019-04-14T04:03:27.958Z,63.00
2019-04-14T04:06:00.786Z,63.20
2019-04-14T04:08:31.185Z,63.70
2019-04-14T04:11:02.037Z,63.50
2019-04-14T04:13:34.547Z,63.90
2019-04-14T04:16:14.348Z,63.60
2019-04-14T04:18:50.869Z,63.80
2019-04-14T04:21:18.439Z,64.10
2019-04-14T04:23:49.294Z,64.50
2019-04-14T04:26:28.500Z,64.30
2019-04-14T04:29:11.203Z,64.30
2019-04-14T04:31:48.254Z,64.80
2019-04-14T04:34:20.493Z,65.00
2019-04-14T04:36:55.371Z,65.10
2019-04-14T04:39:35.271Z,65.30
2019-04-14T04:42:03.045Z,65.60
2019-04-14T04:44:31.810Z,65.80
2019-04-14T04:47:01.230Z,65.50
2019-04-14T04:49:31.269Z,65.90
2019-04-14T04:52:01.766Z,66.60
2019-04-14T04:54:32.763Z,66.70
2019-04-14T04:57:02.485Z,67.00
2019-04-14T04:59:34.322Z,67.20
2019-04-14T05:02:04.682Z,66.80
2019-04-14T05:04:35.007Z,67.00
2019-04-14T05:07:05.618Z,66.60
2019-04-14T05:09:39.070Z,72.50
2019-04-14T05:12:19.753Z,67.60
2019-04-14T05:14:52.354Z,67.10
2019-04-14T05:17:24.139Z,66.40
2019-04-14T05:19:54.116Z,66.30
2019-04-14T05:22:22.998Z,66.60
2019-04-14T05:24:52.932Z,66.50
2019-04-14T05:27:23.949Z,66.30
2019-04-14T05:29:53.626Z,66.30
2019-04-14T05:32:28.607Z,66.30
2019-04-14T05:34:58.614Z,66.10
2019-04-14T05:37:27.627Z,65.80
2019-04-14T05:39:59.373Z,65.90
2019-04-14T05:42:28.733Z,66.40
2019-04-14T05:45:00.038Z,65.60
2019-04-14T05:47:28.946Z,65.60
2019-04-14T05:50:00.892Z,65.40
2019-04-14T05:52:36.802Z,65.70
2019-04-14T05:55:08.679Z,65.60
2019-04-14T05:57:39.492Z,65.10
2019-04-14T06:00:10.327Z,65.00
2019-04-14T06:02:40.385Z,64.80
2019-04-14T06:05:11.274Z,65.20
2019-04-14T06:07:39.603Z,67.70
2019-04-14T06:10:09.300Z,65.50
2019-04-14T06:12:39.210Z,69.20
2019-04-14T06:15:09.060Z,66.00
2019-04-14T06:17:38.054Z,66.10
2019-04-14T06:20:09.132Z,66.30
2019-04-14T06:22:37.843Z,66.00
2019-04-14T06:25:07.389Z,66.10
2019-04-14T06:27:36.597Z,65.50
2019-04-14T06:30:15.714Z,65.90
2019-04-14T06:32:46.223Z,65.90
2019-04-14T06:35:26.816Z,66.20
2019-04-14T06:37:59.845Z,65.80
2019-04-14T06:40:30.372Z,65.10
2019-04-14T06:42:59.213Z,64.70
2019-04-14T06:45:30.186Z,63.90
2019-04-14T06:48:00.016Z,64.90
2019-04-14T06:50:46.439Z,64.80
2019-04-14T06:53:21.381Z,64.20
2019-04-14T06:55:51.376Z,63.90
2019-04-14T06:58:27.230Z,63.40
2019-04-14T07:00:59.263Z,63.50
2019-04-14T07:03:28.998Z,62.60
2019-04-14T07:06:03.633Z,62.40
2019-04-14T07:08:33.492Z,62.80
2019-04-14T07:11:02.441Z,61.70
2019-04-14T07:13:31.386Z,62.00
2019-04-14T07:16:00.296Z,61.20
2019-04-14T07:18:29.103Z,60.90
2019-04-14T07:21:00.808Z,60.30
2019-04-14T07:23:29.574Z,59.50
2019-04-14T07:25:58.292Z,60.90
2019-04-14T07:28:29.141Z,61.00
2019-04-14T07:30:59.665Z,60.10
2019-04-14T07:33:36.255Z,59.60
2019-04-14T07:36:23.435Z,59.80
2019-04-14T07:39:10.124Z,59.00
2019-04-14T07:41:43.336Z,59.70
2019-04-14T07:44:16.616Z,59.10
2019-04-14T07:46:52.040Z,58.10
2019-04-14T07:49:28.409Z,58.00
2019-04-14T07:52:16.114Z,57.90
2019-04-14T07:54:56.499Z,57.20
2019-04-14T07:57:29.809Z,57.70
2019-04-14T08:00:02.212Z,57.90
2019-04-14T08:02:36.501Z,56.90
2019-04-14T08:05:08.992Z,56.00
2019-04-14T08:07:40.455Z,55.90
2019-04-14T08:10:09.428Z,55.60
2019-04-14T08:12:38.143Z,54.70
2019-04-14T08:15:07.821Z,54.70
2019-04-14T08:17:38.591Z,53.10
2019-04-14T08:20:08.223Z,54.80
2019-04-14T08:22:37.154Z,54.00
2019-04-14T08:25:06.725Z,53.10
2019-04-14T08:27:35.839Z,53.60
2019-04-14T08:30:07.695Z,52.00
2019-04-14T08:32:36.548Z,52.20
2019-04-14T08:35:07.183Z,53.00
2019-04-14T08:37:36.035Z,54.20
2019-04-14T08:40:06.161Z,52.90
2019-04-14T08:42:36.455Z,50.60
2019-04-14T08:45:25.258Z,49.40
2019-04-14T08:48:15.035Z,48.80
2019-04-14T08:50:53.778Z,50.10
2019-04-14T08:53:24.146Z,47.10
2019-04-14T08:55:57.389Z,47.10
2019-04-14T08:58:40.821Z,48.00
2019-04-14T09:01:14.242Z,47.00
2019-04-14T09:03:47.706Z,47.10
2019-04-14T09:06:21.359Z,47.20
2019-04-14T09:08:58.478Z,47.30
2019-04-14T09:11:40.846Z,47.70
2019-04-14T09:14:10.654Z,47.90
2019-04-14T09:16:40.944Z,45.30
2019-04-14T09:19:11.768Z,44.80
2019-04-14T09:21:42.633Z,44.70
2019-04-14T09:24:11.551Z,45.70
2019-04-14T09:26:40.807Z,45.70
2019-04-14T09:29:09.544Z,45.30
2019-04-14T09:31:40.384Z,44.70
2019-04-14T09:34:10.336Z,44.90
2019-04-14T09:36:39.057Z,44.20
2019-04-14T09:39:08.142Z,44.60
2019-04-14T09:41:37.030Z,42.60
2019-04-14T09:44:06.871Z,42.60
2019-04-14T09:46:36.784Z,42.00
2019-04-14T09:49:06.613Z,42.80
2019-04-14T09:51:35.448Z,43.40
2019-04-14T09:54:05.908Z,41.80
2019-04-14T09:56:34.698Z,41.30
2019-04-14T09:59:03.601Z,40.30
2019-04-14T10:01:32.608Z,41.00
2019-04-14T10:04:01.406Z,40.70
2019-04-14T10:06:30.278Z,40.60
2019-04-14T10:08:59.258Z,40.00
2019-04-14T10:11:34.144Z,40.20
2019-04-14T10:14:05.531Z,40.50
2019-04-14T10:16:34.268Z,39.70
2019-04-14T10:19:03.280Z,39.50
2019-04-14T10:21:33.170Z,39.00
2019-04-14T10:24:02.115Z,39.10
2019-04-14T10:26:32.059Z,37.80
2019-04-14T10:29:01.954Z,38.40
2019-04-14T10:31:31.879Z,37.90
2019-04-14T10:34:01.843Z,39.30
2019-04-14T10:36:31.693Z,38.10
2019-04-14T10:39:00.422Z,37.60
2019-04-14T10:41:29.435Z,37.40
2019-04-14T10:44:00.223Z,37.60
2019-04-14T10:46:29.226Z,35.50
2019-04-14T10:49:04.112Z,37.90
2019-04-14T10:51:34.173Z,37.70
2019-04-14T10:54:03.679Z,37.30
2019-04-14T10:56:32.534Z,37.30
2019-04-14T10:59:03.402Z,37.90
2019-04-14T11:01:33.836Z,38.80
2019-04-14T11:04:02.657Z,38.30
2019-04-14T11:06:37.085Z,36.50
2019-04-14T11:09:06.807Z,35.50
2019-04-14T11:11:35.875Z,34.40
2019-04-14T11:14:04.757Z,33.40
2019-04-14T11:16:33.732Z,32.40
2019-04-14T11:19:03.694Z,33.30
2019-04-14T11:21:42.803Z,33.50
2019-04-14T11:24:11.751Z,33.80
2019-04-14T11:26:40.570Z,34.20
2019-04-14T11:29:09.447Z,34.30
2019-04-14T11:31:56.379Z,33.90
2019-04-14T11:34:29.426Z,34.50
2019-04-14T11:37:16.629Z,34.00
2019-04-14T11:39:46.328Z,35.30
2019-04-14T11:42:15.327Z,34.30
2019-04-14T11:44:46.276Z,33.80
2019-04-14T11:47:16.326Z,33.90
2019-04-14T11:49:45.228Z,34.50
2019-04-14T11:52:14.043Z,34.30
2019-04-14T11:54:43.906Z,35.70
2019-04-14T11:57:12.618Z,36.00
2019-04-14T11:59:51.867Z,34.90
2019-04-14T12:02:25.099Z,35.00
2019-04-14T12:04:58.348Z,35.80
2019-04-14T12:07:29.886Z,36.00
2019-04-14T12:10:03.632Z,36.20
2019-04-14T12:12:33.592Z,34.50
2019-04-14T12:15:07.470Z,35.10
2019-04-14T12:17:35.267Z,33.60
2019-04-14T12:20:07.404Z,33.30
2019-04-14T12:22:39.876Z,33.00
2019-04-14T12:25:08.691Z,31.90
2019-04-14T12:27:37.453Z,33.00
2019-04-14T12:30:10.943Z,33.50
2019-04-14T12:32:41.225Z,33.70
2019-04-14T12:35:10.193Z,33.40
2019-04-14T12:37:40.212Z,33.40
2019-04-14T12:40:10.522Z,33.60
2019-04-14T12:42:43.891Z,33.30
2019-04-14T12:45:26.163Z,34.30
2019-04-14T12:48:14.941Z,32.50
2019-04-14T12:50:45.311Z,32.90
2019-04-14T12:53:14.128Z,32.70
2019-04-14T12:55:48.841Z,32.30
2019-04-14T12:58:19.482Z,31.40
2019-04-14T13:00:49.766Z,31.60
2019-04-14T13:03:18.986Z,31.10
2019-04-14T13:05:47.925Z,32.60
2019-04-14T13:08:16.924Z,32.50
2019-04-14T13:10:45.948Z,33.00
2019-04-14T13:13:14.934Z,34.20
2019-04-14T13:15:43.873Z,33.90
2019-04-14T13:18:12.874Z,32.50
2019-04-14T13:20:41.883Z,33.20
2019-04-14T13:23:10.610Z,29.80
2019-04-14T13:25:39.521Z,28.90
2019-04-14T13:28:11.653Z,31.30
2019-04-14T13:30:43.230Z,31.70
2019-04-14T13:33:11.971Z,30.90
2019-04-14T13:35:40.819Z,31.30
2019-04-14T13:38:09.696Z,31.70
2019-04-14T13:40:39.957Z,32.20
2019-04-14T13:43:10.841Z,30.90
2019-04-14T13:45:39.549Z,30.00
2019-04-14T13:48:08.443Z,31.20
2019-04-14T13:50:37.213Z,29.80
2019-04-14T13:53:06.158Z,29.90
2019-04-14T13:55:35.159Z,30.60
2019-04-14T13:58:05.097Z,30.30
2019-04-14T14:00:34.121Z,28.90
2019-04-14T14:03:04.888Z,29.70
2019-04-14T14:05:36.375Z,29.20
2019-04-14T14:08:05.108Z,30.60
2019-04-14T14:10:34.083Z,30.90
2019-04-14T14:13:13.864Z,32.30
2019-04-14T14:15:50.279Z,29.70
2019-04-14T14:18:23.735Z,29.00
2019-04-14T14:20:58.191Z,29.60
2019-04-14T14:23:28.492Z,30.00
2019-04-14T14:26:15.527Z,29.20
2019-04-14T14:28:44.247Z,29.90
2019-04-14T14:31:20.335Z,29.30
2019-04-14T14:33:50.299Z,28.80
2019-04-14T14:36:20.133Z,29.10
2019-04-14T14:38:48.879Z,30.20
2019-04-14T14:41:17.954Z,31.40
2019-04-14T14:43:47.556Z,31.30
2019-04-14T14:46:26.689Z,31.80
2019-04-14T14:48:57.183Z,31.50
2019-04-14T14:51:33.592Z,31.70
2019-04-14T14:54:02.339Z,31.70
2019-04-14T14:56:31.727Z,31.00
2019-04-14T14:59:00.586Z,31.90
2019-04-14T15:01:29.326Z,30.20
2019-04-14T15:03:58.125Z,30.70
2019-04-14T15:06:28.145Z,30.00
2019-04-14T15:08:57.020Z,30.10
2019-04-14T15:11:25.867Z,29.90
2019-04-14T15:13:55.983Z,29.90
2019-04-14T15:16:25.019Z,28.10
2019-04-14T15:18:55.937Z,28.40
2019-04-14T15:21:24.814Z,28.00
2019-04-14T15:23:53.821Z,28.20
2019-04-14T15:26:22.932Z,26.90
2019-04-14T15:28:51.770Z,27.30
2019-04-14T15:31:22.559Z,27.30
2019-04-14T15:33:51.578Z,26.90
2019-04-14T15:36:20.601Z,26.90
2019-04-14T15:38:49.559Z,28.10
2019-04-14T15:41:18.613Z,27.60
2019-04-14T15:43:47.529Z,26.70
2019-04-14T15:46:16.247Z,27.70
2019-04-14T15:48:46.168Z,28.40
2019-04-14T15:51:15.211Z,28.20
2019-04-14T15:53:44.096Z,28.40
2019-04-14T15:56:14.445Z,28.90
2019-04-14T15:58:44.905Z,29.70
2019-04-14T16:01:30.712Z,30.10
2019-04-14T16:04:01.015Z,31.00
2019-04-14T16:06:36.188Z,30.60
2019-04-14T16:09:14.500Z,31.10
2019-04-14T16:11:47.764Z,31.40
2019-04-14T16:14:18.223Z,31.50
2019-04-14T16:16:59.399Z,31.10
2019-04-14T16:19:34.832Z,31.30
2019-04-14T16:22:03.663Z,31.70
2019-04-14T16:24:32.466Z,30.90
2019-04-14T16:27:16.564Z,31.90
2019-04-14T16:30:03.338Z,31.50
2019-04-14T16:32:49.788Z,31.60
2019-04-14T16:35:20.250Z,32.60
2019-04-14T16:37:51.024Z,30.80
2019-04-14T16:40:19.793Z,30.30
2019-04-14T16:42:48.715Z,30.10
2019-04-14T16:45:17.456Z,30.10
2019-04-14T16:47:46.779Z,29.60
2019-04-14T16:50:15.791Z,30.00
2019-04-14T16:52:46.231Z,30.10
2019-04-14T16:55:16.706Z,30.90
2019-04-14T16:58:03.599Z,30.80
2019-04-14T17:00:37.018Z,31.10
2019-04-14T17:03:05.375Z,31.70
2019-04-14T17:05:35.025Z,31.20
2019-04-14T17:08:05.131Z,30.70
2019-04-14T17:10:33.982Z,31.50
2019-04-14T17:13:03.151Z,31.60
2019-04-14T17:15:52.781Z,31.90
2019-04-14T17:18:41.064Z,31.20
2019-04-14T17:21:11.533Z,31.10
2019-04-14T17:23:44.496Z,30.90
2019-04-14T17:26:21.107Z,31.80
2019-04-14T17:28:59.943Z,32.00
2019-04-14T17:31:47.001Z,30.70
2019-04-14T17:34:38.975Z,31.50
2019-04-14T17:37:12.130Z,32.00
2019-04-14T17:39:46.298Z,32.20
2019-04-14T17:42:26.235Z,32.10
2019-04-14T17:45:05.603Z,33.00
2019-04-14T17:47:42.222Z,33.40
2019-04-14T17:50:40.573Z,33.40
2019-04-14T17:53:07.935Z,33.50
2019-04-14T17:55:49.369Z,33.90
2019-04-14T17:58:10.271Z,33.70
2019-04-14T18:00:56.911Z,34.80
2019-04-14T18:03:39.482Z,35.40
2019-04-14T18:06:26.699Z,35.20
2019-04-14T18:09:00.129Z,35.40
2019-04-14T18:11:30.483Z,36.50
2019-04-14T18:14:12.803Z,37.20
2019-04-14T18:16:47.128Z,38.00
2019-04-14T18:19:17.431Z,38.10
2019-04-14T18:21:46.205Z,38.30
2019-04-14T18:24:15.086Z,38.50
2019-04-14T18:26:45.891Z,38.60
2019-04-14T18:29:28.356Z,39.40
2019-04-14T18:31:58.821Z,39.60
2019-04-14T18:34:37.972Z,39.70
2019-04-14T18:37:24.418Z,39.90
2019-04-14T18:40:08.227Z,40.10
2019-04-14T18:42:45.654Z,40.40
2019-04-14T18:45:19.093Z,40.90
2019-04-14T18:47:49.639Z,41.40
2019-04-14T18:50:37.430Z,41.50
2019-04-14T18:53:10.727Z,41.90
2019-04-14T18:55:57.954Z,42.30
2019-04-14T18:58:37.506Z,42.50
2019-04-14T19:01:14.285Z,42.70
2019-04-14T19:03:43.195Z,43.10
2019-04-14T19:06:17.966Z,43.50
2019-04-14T19:08:46.759Z,43.80
2019-04-14T19:11:18.142Z,43.90
2019-04-14T19:13:57.578Z,43.90
2019-04-14T19:16:40.229Z,44.00
2019-04-14T19:19:10.851Z,44.10
2019-04-14T19:21:39.695Z,44.20
2019-04-14T19:24:08.549Z,44.30
2019-04-14T19:26:37.323Z,44.50
2019-04-14T19:29:06.036Z,44.60
2019-04-14T19:31:36.796Z,44.70
2019-04-14T19:34:08.303Z,44.60
2019-04-14T19:36:37.121Z,43.90
2019-04-14T19:39:10.236Z,43.50
2019-04-14T19:41:39.092Z,43.10
2019-04-14T19:44:15.862Z,43.00
2019-04-14T19:46:45.930Z,43.20
2019-04-14T19:49:15.843Z,43.50
2019-04-14T19:51:44.559Z,44.10
2019-04-14T19:54:13.463Z,43.90
2019-04-14T19:56:42.231Z,44.60
2019-04-14T19:59:12.991Z,44.10
2019-04-14T20:01:45.565Z,43.90
2019-04-14T20:04:14.334Z,43.90
2019-04-14T20:06:44.242Z,43.70
2019-04-14T20:09:14.126Z,43.70
2019-04-14T20:11:49.134Z,44.10
2019-04-14T20:14:17.902Z,44.60
2019-04-14T20:16:48.323Z,45.40
2019-04-14T20:19:24.955Z,45.40
2019-04-14T20:21:58.556Z,46.20
2019-04-14T20:24:35.231Z,44.80
2019-04-14T20:27:06.574Z,45.30
2019-04-14T20:29:39.601Z,46.20
2019-04-14T20:32:11.147Z,46.10
2019-04-14T20:34:41.890Z,46.50
2019-04-14T20:37:11.008Z,46.90
2019-04-14T20:39:39.886Z,47.20
2019-04-14T20:42:09.297Z,46.80
2019-04-14T20:44:38.090Z,46.50
2019-04-14T20:47:08.858Z,46.50
2019-04-14T20:49:38.356Z,46.00
2019-04-14T20:52:09.168Z,46.20
2019-04-14T20:54:38.155Z,46.50
2019-04-14T20:57:06.884Z,47.40
2019-04-14T20:59:35.840Z,47.20
2019-04-14T21:02:24.310Z,46.90
2019-04-14T21:04:54.692Z,47.30
2019-04-14T21:07:25.052Z,46.60
2019-04-14T21:09:58.418Z,46.50
2019-04-14T21:12:31.404Z,46.70
2019-04-14T21:15:20.149Z,46.40
2019-04-14T21:17:58.762Z,46.50
2019-04-14T21:20:47.182Z,46.40
2019-04-14T21:23:20.334Z,47.70
2019-04-14T21:26:00.541Z,48.40
2019-04-14T21:28:31.764Z,47.80
2019-04-14T21:31:10.962Z,48.70
2019-04-14T21:34:04.627Z,48.20
2019-04-14T21:36:40.295Z,48.50
2019-04-14T21:39:10.781Z,49.00
2019-04-14T21:41:41.393Z,48.40
2019-04-14T21:44:16.126Z,48.40
2019-04-14T21:46:46.121Z,48.70
2019-04-14T21:49:14.867Z,48.40
2019-04-14T21:51:51.600Z,48.60
2019-04-14T21:54:21.030Z,48.50
2019-04-14T21:57:07.803Z,48.40
2019-04-14T22:00:00.160Z,49.00
2019-04-14T22:02:47.802Z,49.10
2019-04-14T22:05:24.059Z,49.00
2019-04-14T22:07:54.390Z,49.30
2019-04-14T22:10:24.726Z,49.40
2019-04-14T22:12:53.700Z,49.70
2019-04-14T22:15:24.603Z,50.10
2019-04-14T22:17:53.339Z,50.90
2019-04-14T22:20:22.044Z,50.60
2019-04-14T22:22:51.050Z,50.90
2019-04-14T22:25:19.816Z,50.80
2019-04-14T22:27:56.527Z,51.40
2019-04-14T22:30:25.337Z,51.30
2019-04-14T22:32:55.278Z,51.80
2019-04-14T22:35:24.175Z,52.10
2019-04-14T22:37:54.167Z,53.00
2019-04-14T22:40:23.095Z,52.80
2019-04-14T22:42:58.799Z,53.00
2019-04-14T22:45:27.533Z,53.20
2019-04-14T22:47:57.249Z,53.20
2019-04-14T22:50:26.986Z,53.30
2019-04-14T22:52:55.718Z,54.10
2019-04-14T22:55:24.857Z,54.20
2019-04-14T22:57:59.935Z,54.40
2019-04-14T23:00:45.129Z,54.80
2019-04-14T23:03:15.646Z,55.30
2019-04-14T23:06:03.213Z,55.30
2019-04-14T23:08:33.491Z,55.40
2019-04-14T23:11:16.150Z,56.00
2019-04-14T23:13:51.289Z,55.90
2019-04-14T23:16:21.750Z,56.20
2019-04-14T23:19:09.405Z,56.00
2019-04-14T23:21:39.755Z,56.20
2019-04-14T23:24:12.163Z,56.30
2019-04-14T23:26:52.913Z,56.50
2019-04-14T23:29:26.306Z,56.30
2019-04-14T23:31:55.077Z,56.50
2019-04-14T23:34:23.801Z,56.70
2019-04-14T23:36:52.707Z,56.30
2019-04-14T23:39:22.639Z,56.30
2019-04-14T23:41:51.570Z,56.60
2019-04-14T23:44:20.292Z,56.70
2019-04-14T23:46:49.033Z,57.50
2019-04-14T23:49:17.746Z,57.60
2019-04-14T23:51:47.548Z,57.60
2019-04-14T23:54:16.498Z,57.20
2019-04-14T23:56:45.234Z,57.60
2019-04-14T23:59:13.969Z,57.30
